createdAt,value
2019-03-20T00:00:07.515Z,0
2019-03-20T00:01:17.823Z,0
2019-03-20T00:02:27.920Z,0
2019-03-20T00:03:38.107Z,0
2019-03-20T00:04:58.814Z,0
2019-03-20T00:06:08.923Z,0
2019-03-20T00:07:19.033Z,0
2019-03-20T00:08:29.128Z,0
2019-03-20T00:09:39.258Z,0
2019-03-20T00:10:49.367Z,0
2019-03-20T00:11:59.482Z,0
2019-03-20T00:13:09.600Z,0
2019-03-20T00:14:19.706Z,0
2019-03-20T00:15:29.876Z,0
2019-03-20T00:16:40.001Z,0
2019-03-20T00:17:50.128Z,0
2019-03-20T00:19:00.235Z,0
2019-03-20T00:20:10.358Z,0
2019-03-20T00:21:20.463Z,0
2019-03-20T00:22:30.570Z,0
2019-03-20T00:23:40.684Z,0
2019-03-20T00:24:50.837Z,0
2019-03-20T00:26:00.951Z,0
2019-03-20T00:27:10.803Z,0
2019-03-20T00:28:20.914Z,0
2019-03-20T00:29:31.040Z,0
2019-03-20T00:30:41.168Z,0
2019-03-20T00:31:51.313Z,0
2019-03-20T00:33:01.418Z,0
2019-03-20T00:34:11.527Z,0
2019-03-20T00:35:21.653Z,0
2019-03-20T00:36:31.942Z,0
2019-03-20T00:37:42.148Z,0
2019-03-20T00:38:51.893Z,0
2019-03-20T00:40:02.042Z,0
2019-03-20T00:41:11.929Z,0
2019-03-20T00:42:22.033Z,0
2019-03-20T00:43:32.263Z,0
2019-03-20T00:44:42.368Z,0
2019-03-20T00:45:52.476Z,0
2019-03-20T00:47:02.588Z,0
2019-03-20T00:48:12.725Z,0
2019-03-20T00:49:22.816Z,0
2019-03-20T00:50:32.928Z,0
2019-03-20T00:51:43.040Z,0
2019-03-20T00:52:53.191Z,0
2019-03-20T00:54:03.287Z,0
2019-03-20T00:55:13.043Z,0
2019-03-20T00:56:23.161Z,0
2019-03-20T00:57:33.285Z,0
2019-03-20T00:58:44.690Z,0
2019-03-20T00:59:54.800Z,0
2019-03-20T01:01:04.948Z,0
2019-03-20T01:02:15.061Z,0
2019-03-20T01:03:25.194Z,0
2019-03-20T01:04:35.050Z,0
2019-03-20T01:05:45.174Z,0
2019-03-20T01:06:55.270Z,0
2019-03-20T01:08:05.483Z,0
2019-03-20T01:09:15.603Z,0
2019-03-20T01:10:25.474Z,0
2019-03-20T01:11:35.589Z,0
2019-03-20T01:12:45.702Z,0
2019-03-20T01:13:55.805Z,0
2019-03-20T01:15:05.914Z,0
2019-03-20T01:16:16.011Z,0
2019-03-20T01:17:26.111Z,0
2019-03-20T01:18:36.214Z,0
2019-03-20T01:19:46.316Z,0
2019-03-20T01:20:56.173Z,0
2019-03-20T01:22:06.269Z,0
2019-03-20T01:23:16.372Z,0
2019-03-20T01:24:26.487Z,0
2019-03-20T01:25:37.664Z,0
2019-03-20T01:26:47.806Z,0
2019-03-20T01:27:57.937Z,0
2019-03-20T01:29:07.683Z,0
2019-03-20T01:30:17.992Z,0
2019-03-20T01:31:28.103Z,0
2019-03-20T01:32:38.228Z,0
2019-03-20T01:33:48.341Z,0
2019-03-20T01:34:58.500Z,0
2019-03-20T01:36:08.613Z,0
2019-03-20T01:37:18.726Z,0
2019-03-20T01:38:28.850Z,0
2019-03-20T01:39:38.975Z,0
2019-03-20T01:40:50.311Z,0
2019-03-20T01:42:00.414Z,0
2019-03-20T01:43:10.525Z,0
2019-03-20T01:44:20.625Z,0
2019-03-20T01:45:30.745Z,0
2019-03-20T01:46:40.878Z,0
2019-03-20T01:47:50.975Z,0
2019-03-20T01:49:01.082Z,0
2019-03-20T01:50:11.179Z,0
2019-03-20T01:51:20.914Z,0
2019-03-20T01:52:31.019Z,0
2019-03-20T01:53:41.145Z,0
2019-03-20T01:54:51.237Z,0
2019-03-20T01:56:01.611Z,0
2019-03-20T01:57:11.781Z,0
2019-03-20T01:58:21.897Z,0
2019-03-20T01:59:32.225Z,0
2019-03-20T02:00:42.318Z,0
2019-03-20T02:01:52.438Z,0
2019-03-20T02:03:02.301Z,0
2019-03-20T02:04:12.428Z,0
2019-03-20T02:05:22.531Z,0
2019-03-20T02:06:32.655Z,0
2019-03-20T02:07:42.526Z,0
2019-03-20T02:08:52.701Z,0
2019-03-20T02:10:03.410Z,0
2019-03-20T02:11:13.285Z,0
2019-03-20T02:12:23.397Z,0
2019-03-20T02:13:33.510Z,0
2019-03-20T02:14:43.613Z,0
2019-03-20T02:15:53.704Z,0
2019-03-20T02:17:03.814Z,0
2019-03-20T02:18:13.917Z,0
2019-03-20T02:19:24.024Z,0
2019-03-20T02:20:34.182Z,0
2019-03-20T02:21:44.299Z,0
2019-03-20T02:22:54.402Z,0
2019-03-20T02:24:04.262Z,0
2019-03-20T02:25:14.379Z,0
2019-03-20T02:26:24.473Z,0
2019-03-20T02:27:34.589Z,0
2019-03-20T02:28:44.434Z,0
2019-03-20T02:29:54.681Z,0
2019-03-20T02:31:04.833Z,0
2019-03-20T02:32:14.995Z,0
2019-03-20T02:33:25.151Z,0
2019-03-20T02:34:35.260Z,0
2019-03-20T02:36:00.216Z,0
2019-03-20T02:37:10.324Z,0
2019-03-20T02:38:20.442Z,0
2019-03-20T02:39:30.543Z,0
2019-03-20T02:40:40.677Z,0
2019-03-20T02:41:50.790Z,0
2019-03-20T02:43:00.997Z,0
2019-03-20T02:44:11.111Z,0
2019-03-20T02:45:21.249Z,0
2019-03-20T02:46:31.388Z,0
2019-03-20T02:47:41.498Z,0
2019-03-20T02:48:51.612Z,0
2019-03-20T02:50:01.713Z,0
2019-03-20T02:51:11.846Z,0
2019-03-20T02:52:21.981Z,0
2019-03-20T02:53:32.122Z,0
2019-03-20T02:54:42.228Z,0
2019-03-20T02:55:52.097Z,0
2019-03-20T02:57:02.206Z,0
2019-03-20T02:58:12.326Z,0
2019-03-20T02:59:22.432Z,0
2019-03-20T03:00:32.352Z,0
2019-03-20T03:01:42.477Z,0
2019-03-20T03:02:52.629Z,0
2019-03-20T03:04:02.972Z,0
2019-03-20T03:05:13.101Z,0
2019-03-20T03:06:23.252Z,0
2019-03-20T03:07:33.388Z,0
2019-03-20T03:08:43.508Z,0
2019-03-20T03:09:53.620Z,0
2019-03-20T03:11:05.454Z,0
2019-03-20T03:12:15.790Z,0
2019-03-20T03:13:25.921Z,0
2019-03-20T03:14:36.051Z,0
2019-03-20T03:15:46.169Z,0
2019-03-20T03:16:56.281Z,0
2019-03-20T03:18:06.403Z,0
2019-03-20T03:19:16.520Z,0
2019-03-20T03:20:26.377Z,0
2019-03-20T03:21:36.586Z,0
2019-03-20T03:22:46.690Z,0
2019-03-20T03:23:56.879Z,0
2019-03-20T03:25:06.988Z,0
2019-03-20T03:26:17.130Z,0
2019-03-20T03:27:27.052Z,0
2019-03-20T03:28:37.198Z,0
2019-03-20T03:29:47.298Z,0
2019-03-20T03:30:57.453Z,0
2019-03-20T03:32:07.675Z,0
2019-03-20T03:33:18.005Z,0
2019-03-20T03:34:28.198Z,0
2019-03-20T03:35:38.330Z,0
2019-03-20T03:36:48.467Z,0
2019-03-20T03:37:58.652Z,0
2019-03-20T03:39:08.830Z,0
2019-03-20T03:40:18.936Z,0
2019-03-20T03:41:29.076Z,0
2019-03-20T03:42:39.198Z,0
2019-03-20T03:43:49.326Z,0
2019-03-20T03:44:59.465Z,0
2019-03-20T03:46:09.579Z,0
2019-03-20T03:47:19.703Z,0
2019-03-20T03:48:29.825Z,0
2019-03-20T03:49:40.033Z,0
2019-03-20T03:50:53.322Z,0
2019-03-20T03:52:03.453Z,0
2019-03-20T03:53:13.603Z,0
2019-03-20T03:54:23.778Z,0
2019-03-20T03:55:33.894Z,0
2019-03-20T03:56:44.008Z,0
2019-03-20T03:57:53.991Z,0
2019-03-20T03:59:04.117Z,0
2019-03-20T04:00:14.264Z,0
2019-03-20T04:01:24.381Z,0
2019-03-20T04:02:34.594Z,0
2019-03-20T04:03:44.747Z,0
2019-03-20T04:04:54.872Z,0
2019-03-20T04:06:05.011Z,0
2019-03-20T04:07:15.133Z,0
2019-03-20T04:08:25.249Z,0
2019-03-20T04:09:35.369Z,0
2019-03-20T04:10:45.472Z,0
2019-03-20T04:11:55.597Z,0
2019-03-20T04:13:05.738Z,0
2019-03-20T04:14:15.855Z,0
2019-03-20T04:15:25.987Z,0
2019-03-20T04:16:36.114Z,0
2019-03-20T04:17:46.321Z,0
2019-03-20T04:18:56.205Z,0
2019-03-20T04:20:06.334Z,0
2019-03-20T04:21:16.448Z,0
2019-03-20T04:22:26.568Z,0
2019-03-20T04:23:37.769Z,0
2019-03-20T04:24:47.915Z,0
2019-03-20T04:25:58.028Z,0
2019-03-20T04:27:08.137Z,0
2019-03-20T04:28:18.235Z,0
2019-03-20T04:29:28.342Z,0
2019-03-20T04:30:38.468Z,0
2019-03-20T04:31:48.637Z,0
2019-03-20T04:32:58.752Z,0
2019-03-20T04:34:08.858Z,0
2019-03-20T04:35:19.004Z,0
2019-03-20T04:36:29.112Z,0
2019-03-20T04:37:39.252Z,0
2019-03-20T04:38:49.374Z,0
2019-03-20T04:39:59.480Z,0
2019-03-20T04:41:09.630Z,0
2019-03-20T04:42:19.745Z,0
2019-03-20T04:43:29.886Z,0
2019-03-20T04:44:39.991Z,0
2019-03-20T04:45:49.746Z,0
2019-03-20T04:47:02.255Z,0
2019-03-20T04:52:01.405Z,0
2019-03-20T04:53:11.517Z,0
2019-03-20T04:54:21.624Z,0
2019-03-20T04:55:31.736Z,0
2019-03-20T04:56:41.840Z,0
2019-03-20T04:57:53.282Z,0
2019-03-20T04:59:03.386Z,0
2019-03-20T05:00:13.507Z,0
2019-03-20T05:01:23.616Z,0
2019-03-20T05:02:33.730Z,0
2019-03-20T05:03:44.036Z,0
2019-03-20T05:04:54.133Z,0
2019-03-20T05:06:04.459Z,0
2019-03-20T05:07:14.313Z,0
2019-03-20T05:08:24.466Z,0
2019-03-20T05:09:34.570Z,0
2019-03-20T05:10:44.682Z,0
2019-03-20T05:11:54.772Z,0
2019-03-20T05:13:04.902Z,0
2019-03-20T05:14:17.292Z,5
2019-03-20T05:15:27.420Z,5
2019-03-20T05:16:37.528Z,5
2019-03-20T05:17:47.652Z,5
2019-03-20T05:18:57.531Z,5
2019-03-20T05:20:07.465Z,5
2019-03-20T05:21:17.555Z,10
2019-03-20T05:22:27.651Z,10
2019-03-20T05:23:37.530Z,10
2019-03-20T05:24:47.697Z,10
2019-03-20T05:25:57.866Z,10
2019-03-20T05:27:07.975Z,15
2019-03-20T05:28:18.079Z,15
2019-03-20T05:29:28.199Z,15
2019-03-20T05:30:38.322Z,15
2019-03-20T05:31:48.431Z,15
2019-03-20T05:32:58.590Z,20
2019-03-20T05:34:08.446Z,20
2019-03-20T05:35:18.662Z,20
2019-03-20T05:36:28.806Z,20
2019-03-20T05:37:38.939Z,25
2019-03-20T05:38:49.059Z,25
2019-03-20T05:39:59.195Z,25
2019-03-20T05:41:09.339Z,25
2019-03-20T05:42:19.444Z,30
2019-03-20T05:43:29.547Z,30
2019-03-20T05:44:39.660Z,30
2019-03-20T05:45:49.796Z,35
2019-03-20T05:46:59.904Z,35
2019-03-20T05:48:10.042Z,35
2019-03-20T05:49:20.139Z,40
2019-03-20T05:50:30.252Z,40
2019-03-20T05:51:40.355Z,40
2019-03-20T05:52:50.480Z,40
2019-03-20T05:54:00.607Z,45
2019-03-20T05:55:10.732Z,45
2019-03-20T05:56:20.832Z,45
2019-03-20T05:57:30.951Z,45
2019-03-20T05:58:41.082Z,45
2019-03-20T05:59:51.190Z,50
2019-03-20T06:01:01.302Z,50
2019-03-20T06:02:11.412Z,50
2019-03-20T06:03:21.538Z,50
2019-03-20T06:04:31.634Z,50
2019-03-20T06:05:41.757Z,55
2019-03-20T06:06:51.875Z,55
2019-03-20T06:08:01.997Z,55
2019-03-20T06:09:12.114Z,55
2019-03-20T06:10:22.255Z,55
2019-03-20T06:11:32.353Z,60
2019-03-20T06:12:42.494Z,60
2019-03-20T06:13:52.619Z,60
2019-03-20T06:15:02.748Z,60
2019-03-20T06:16:12.872Z,60
2019-03-20T06:17:22.981Z,65
2019-03-20T06:18:33.089Z,65
2019-03-20T06:19:43.201Z,65
2019-03-20T06:20:53.311Z,65
2019-03-20T06:22:03.421Z,70
2019-03-20T06:23:15.945Z,70
2019-03-20T06:24:26.061Z,70
2019-03-20T06:25:35.847Z,70
2019-03-20T06:26:45.958Z,75
2019-03-20T06:27:57.958Z,75
2019-03-20T06:29:08.072Z,75
2019-03-20T06:30:18.197Z,75
2019-03-20T06:31:28.350Z,80
2019-03-20T06:32:38.471Z,80
2019-03-20T06:33:48.322Z,80
2019-03-20T06:34:58.708Z,80
2019-03-20T06:36:08.815Z,85
2019-03-20T06:37:18.952Z,85
2019-03-20T06:38:29.070Z,85
2019-03-20T06:39:39.194Z,85
2019-03-20T06:40:49.292Z,85
2019-03-20T06:41:59.410Z,85
2019-03-20T06:43:09.616Z,90
2019-03-20T06:44:19.730Z,90
2019-03-20T06:45:29.845Z,90
2019-03-20T06:46:39.951Z,90
2019-03-20T06:47:50.085Z,90
2019-03-20T06:49:00.188Z,95
2019-03-20T06:50:10.315Z,100
2019-03-20T06:51:20.418Z,95
2019-03-20T06:52:30.521Z,95
2019-03-20T06:53:40.646Z,95
2019-03-20T06:54:50.759Z,100
2019-03-20T06:56:00.855Z,100
2019-03-20T06:57:11.005Z,100
2019-03-20T06:58:21.118Z,100
2019-03-20T06:59:31.226Z,105
2019-03-20T07:00:41.348Z,105
2019-03-20T07:01:51.462Z,105
2019-03-20T07:03:01.567Z,110
2019-03-20T07:04:11.678Z,110
2019-03-20T07:05:21.792Z,115
2019-03-20T07:06:31.915Z,120
2019-03-20T07:07:53.067Z,120
2019-03-20T07:09:03.184Z,125
2019-03-20T07:10:13.294Z,125
2019-03-20T07:11:23.405Z,125
2019-03-20T07:12:33.538Z,125
2019-03-20T07:13:43.895Z,130
2019-03-20T07:14:54.022Z,135
2019-03-20T07:16:04.131Z,140
2019-03-20T07:17:14.250Z,140
2019-03-20T07:18:24.366Z,140
2019-03-20T07:19:34.501Z,150
2019-03-20T07:20:44.611Z,150
2019-03-20T07:21:54.748Z,150
2019-03-20T07:23:04.951Z,155
2019-03-20T07:24:15.114Z,155
2019-03-20T07:25:25.249Z,160
2019-03-20T07:26:36.021Z,160
2019-03-20T07:27:46.127Z,165
2019-03-20T07:28:56.245Z,165
2019-03-20T07:30:06.395Z,165
2019-03-20T07:31:25.198Z,170
2019-03-20T07:32:37.314Z,170
2019-03-20T07:33:47.436Z,175
2019-03-20T07:34:57.559Z,180
2019-03-20T07:36:07.713Z,180
2019-03-20T07:37:17.821Z,180
2019-03-20T07:38:28.028Z,185
2019-03-20T07:39:38.194Z,190
2019-03-20T07:40:48.297Z,190
2019-03-20T07:41:58.434Z,190
2019-03-20T07:43:18.169Z,195
2019-03-20T07:44:28.276Z,195
2019-03-20T07:45:38.388Z,200
2019-03-20T07:46:48.494Z,200
2019-03-20T07:47:58.613Z,200
2019-03-20T07:49:08.798Z,200
2019-03-20T07:50:18.898Z,200
2019-03-20T07:51:29.077Z,205
2019-03-20T07:52:39.196Z,205
2019-03-20T07:53:49.309Z,205
2019-03-20T07:55:02.017Z,210
2019-03-20T07:56:12.171Z,215
2019-03-20T07:57:22.310Z,220
2019-03-20T07:58:32.520Z,225
2019-03-20T07:59:42.640Z,230
2019-03-20T08:00:52.767Z,235
2019-03-20T08:02:02.907Z,245
2019-03-20T08:03:13.046Z,260
2019-03-20T08:04:23.174Z,405
2019-03-20T08:05:39.001Z,590
2019-03-20T08:06:49.125Z,675
2019-03-20T08:08:09.485Z,700
2019-03-20T08:09:19.743Z,730
2019-03-20T08:10:29.865Z,690
2019-03-20T08:11:40.007Z,775
2019-03-20T08:12:50.128Z,820
2019-03-20T08:14:00.283Z,825
2019-03-20T08:15:10.418Z,835
2019-03-20T08:16:20.567Z,810
2019-03-20T08:17:30.704Z,820
2019-03-20T08:18:40.818Z,815
2019-03-20T08:19:50.937Z,910
2019-03-20T08:21:01.130Z,965
2019-03-20T08:22:11.253Z,1050
2019-03-20T08:23:21.379Z,1070
2019-03-20T08:24:31.510Z,1080
2019-03-20T08:25:41.669Z,1125
2019-03-20T08:26:51.459Z,1130
2019-03-20T08:28:01.637Z,1135
2019-03-20T08:29:11.784Z,1120
2019-03-20T08:30:23.313Z,1080
2019-03-20T08:31:33.473Z,1070
2019-03-20T08:32:43.583Z,995
2019-03-20T08:33:53.723Z,885
2019-03-20T08:35:03.854Z,570
2019-03-20T08:36:14.026Z,510
2019-03-20T08:37:24.187Z,465
2019-03-20T08:38:34.341Z,450
2019-03-20T08:39:44.487Z,630
2019-03-20T08:40:54.612Z,775
2019-03-20T08:42:04.779Z,780
2019-03-20T08:43:14.927Z,850
2019-03-20T08:44:25.042Z,875
2019-03-20T08:45:35.183Z,940
2019-03-20T08:46:45.310Z,985
2019-03-20T08:47:55.463Z,990
2019-03-20T08:49:05.685Z,1015
2019-03-20T08:50:15.827Z,1025
2019-03-20T08:51:25.970Z,1050
2019-03-20T08:52:36.104Z,1080
2019-03-20T08:53:46.236Z,1095
2019-03-20T08:54:56.393Z,1125
2019-03-20T08:56:06.559Z,1100
2019-03-20T08:57:16.707Z,1090
2019-03-20T08:58:26.827Z,1150
2019-03-20T08:59:36.701Z,1160
2019-03-20T09:00:46.893Z,1210
2019-03-20T09:01:57.032Z,1235
2019-03-20T09:03:07.217Z,1240
2019-03-20T09:04:17.342Z,1240
2019-03-20T09:05:27.495Z,1275
2019-03-20T09:06:37.641Z,1280
2019-03-20T09:07:56.745Z,1275
2019-03-20T09:09:06.891Z,1280
2019-03-20T09:10:21.685Z,1305
2019-03-20T09:11:34.847Z,1320
2019-03-20T09:12:45.254Z,1340
2019-03-20T09:13:55.402Z,1335
2019-03-20T09:15:06.956Z,1345
2019-03-20T09:16:17.954Z,1350
2019-03-20T09:17:28.082Z,1375
2019-03-20T09:18:38.232Z,1390
2019-03-20T09:19:48.369Z,1400
2019-03-20T09:20:58.522Z,1415
2019-03-20T09:22:08.669Z,1420
2019-03-20T09:23:18.870Z,1425
2019-03-20T09:24:29.043Z,1435
2019-03-20T09:25:39.189Z,1450
2019-03-20T09:26:51.440Z,1470
2019-03-20T09:28:01.625Z,1480
2019-03-20T09:29:23.020Z,1495
2019-03-20T09:30:33.185Z,1505
2019-03-20T09:31:43.386Z,1505
2019-03-20T09:32:53.521Z,1525
2019-03-20T09:34:04.165Z,1525
2019-03-20T09:35:16.691Z,1525
2019-03-20T09:36:26.941Z,1530
2019-03-20T09:37:37.115Z,1545
2019-03-20T09:38:53.208Z,1560
2019-03-20T09:40:03.341Z,1575
2019-03-20T09:41:13.472Z,1570
2019-03-20T09:42:23.632Z,1605
2019-03-20T09:43:33.792Z,1605
2019-03-20T09:44:43.957Z,1595
2019-03-20T09:45:54.114Z,1560
2019-03-20T09:48:17.899Z,1555
2019-03-20T09:49:28.037Z,1535
2019-03-20T09:50:38.208Z,1505
2019-03-20T09:51:48.341Z,1395
2019-03-20T09:52:59.796Z,1345
2019-03-20T09:54:09.954Z,925
2019-03-20T09:55:20.167Z,1085
2019-03-20T09:56:30.338Z,1240
2019-03-20T09:57:40.475Z,1465
2019-03-20T09:58:50.631Z,1385
2019-03-20T10:00:00.779Z,1325
2019-03-20T10:01:10.925Z,1275
2019-03-20T10:02:21.107Z,1305
2019-03-20T10:03:30.899Z,1230
2019-03-20T10:04:41.028Z,1330
2019-03-20T10:05:51.179Z,1440
2019-03-20T10:07:01.328Z,1605
2019-03-20T10:08:11.468Z,1670
2019-03-20T10:09:21.607Z,1755
2019-03-20T10:10:31.743Z,1825
2019-03-20T10:11:41.905Z,1330
2019-03-20T10:12:52.050Z,1115
2019-03-20T10:14:02.195Z,1275
2019-03-20T10:15:12.343Z,1265
2019-03-20T10:16:22.503Z,1365
2019-03-20T10:17:32.628Z,1390
2019-03-20T10:18:42.768Z,1695
2019-03-20T10:19:52.916Z,1805
2019-03-20T10:21:03.059Z,1815
2019-03-20T10:22:13.307Z,1735
2019-03-20T10:23:23.470Z,1820
2019-03-20T10:24:33.640Z,1860
2019-03-20T10:25:53.993Z,1820
2019-03-20T10:27:04.158Z,1745
2019-03-20T10:28:14.325Z,1575
2019-03-20T10:29:24.492Z,1500
2019-03-20T10:30:34.627Z,1515
2019-03-20T10:31:44.859Z,1450
2019-03-20T10:32:55.016Z,1485
2019-03-20T10:34:05.180Z,1675
2019-03-20T10:35:15.318Z,1635
2019-03-20T10:36:25.454Z,1585
2019-03-20T10:37:35.604Z,1640
2019-03-20T10:38:47.567Z,1645
2019-03-20T10:39:58.753Z,1780
2019-03-20T10:41:08.919Z,1670
2019-03-20T10:42:19.076Z,1880
2019-03-20T10:43:29.238Z,1865
2019-03-20T10:44:39.420Z,1750
2019-03-20T10:45:49.560Z,1685
2019-03-20T10:46:59.705Z,1655
2019-03-20T10:48:09.870Z,1785
2019-03-20T10:49:20.073Z,1730
2019-03-20T10:50:31.319Z,1835
2019-03-20T10:51:41.502Z,1895
2019-03-20T10:52:51.685Z,1920
2019-03-20T10:54:01.829Z,1780
2019-03-20T10:55:11.998Z,1740
2019-03-20T10:56:22.181Z,1775
2019-03-20T10:57:32.356Z,1810
2019-03-20T10:58:42.541Z,1965
2019-03-20T10:59:52.719Z,1945
2019-03-20T11:01:02.866Z,1870
2019-03-20T11:02:13.041Z,1695
2019-03-20T11:03:23.180Z,1615
2019-03-20T11:04:33.336Z,1575
2019-03-20T11:05:43.491Z,1555
2019-03-20T11:06:53.684Z,1355
2019-03-20T11:08:03.864Z,1415
2019-03-20T11:09:24.754Z,1370
2019-03-20T11:10:34.663Z,1050
2019-03-20T11:11:44.841Z,1320
2019-03-20T11:12:55.037Z,1425
2019-03-20T11:14:05.222Z,1500
2019-03-20T11:15:15.383Z,1640
2019-03-20T11:16:25.510Z,1620
2019-03-20T11:17:35.735Z,1705
2019-03-20T11:18:48.357Z,1570
2019-03-20T11:20:01.142Z,1805
2019-03-20T11:21:11.340Z,1825
2019-03-20T11:22:28.572Z,1625
2019-03-20T11:23:38.702Z,1685
2019-03-20T11:24:48.906Z,1425
2019-03-20T11:26:00.060Z,1045
2019-03-20T11:27:10.376Z,1000
2019-03-20T11:28:20.547Z,1225
2019-03-20T11:29:31.579Z,1150
2019-03-20T11:30:41.746Z,965
2019-03-20T11:31:51.952Z,1325
2019-03-20T11:33:02.152Z,1515
2019-03-20T11:34:12.320Z,1165
2019-03-20T11:35:22.500Z,1545
2019-03-20T11:36:32.654Z,1570
2019-03-20T11:37:42.777Z,1515
2019-03-20T11:38:52.983Z,1510
2019-03-20T11:40:03.149Z,1330
2019-03-20T11:41:13.294Z,1545
2019-03-20T11:42:23.507Z,1580
2019-03-20T11:43:33.668Z,1585
2019-03-20T11:44:43.828Z,1680
2019-03-20T11:45:53.952Z,1395
2019-03-20T11:47:04.095Z,1530
2019-03-20T11:48:14.251Z,1845
2019-03-20T11:49:24.407Z,1690
2019-03-20T11:50:34.838Z,1925
2019-03-20T11:51:44.722Z,1865
2019-03-20T11:52:54.890Z,1720
2019-03-20T11:54:05.011Z,1680
2019-03-20T11:55:15.136Z,1765
2019-03-20T11:56:25.254Z,1855
2019-03-20T11:57:35.440Z,1780
2019-03-20T11:58:45.604Z,1845
2019-03-20T11:59:55.742Z,1860
2019-03-20T12:01:05.869Z,1800
2019-03-20T12:02:27.337Z,1855
2019-03-20T12:03:37.827Z,1735
2019-03-20T12:04:47.998Z,1715
2019-03-20T12:05:58.186Z,1640
2019-03-20T12:07:08.332Z,1675
2019-03-20T12:08:18.487Z,1715
2019-03-20T12:09:28.632Z,1765
2019-03-20T12:10:38.851Z,1575
2019-03-20T12:11:55.674Z,1580
2019-03-20T12:13:05.828Z,1705
2019-03-20T12:14:15.975Z,1730
2019-03-20T12:15:26.156Z,1760
2019-03-20T12:16:36.318Z,1760
2019-03-20T12:17:46.506Z,1745
2019-03-20T12:18:56.699Z,1780
2019-03-20T12:20:06.859Z,1780
2019-03-20T12:21:17.037Z,1380
2019-03-20T12:22:27.242Z,1690
2019-03-20T12:23:38.689Z,1685
2019-03-20T12:24:48.874Z,1675
2019-03-20T12:25:59.043Z,1705
2019-03-20T12:27:19.905Z,1785
2019-03-20T12:28:30.192Z,1850
2019-03-20T12:29:40.338Z,1960
2019-03-20T12:30:50.531Z,1990
2019-03-20T12:32:00.703Z,1945
2019-03-20T12:33:10.849Z,1715
2019-03-20T12:34:21.027Z,1460
2019-03-20T12:35:31.190Z,1530
2019-03-20T12:36:41.335Z,1810
2019-03-20T12:37:51.514Z,1850
2019-03-20T12:39:01.689Z,1865
2019-03-20T12:40:11.871Z,1720
2019-03-20T12:41:22.018Z,1430
2019-03-20T12:42:32.210Z,560
2019-03-20T12:43:42.438Z,1545
2019-03-20T12:44:52.571Z,1625
2019-03-20T12:46:02.962Z,1710
2019-03-20T12:47:13.106Z,1760
2019-03-20T12:48:23.301Z,1770
2019-03-20T12:49:33.457Z,1490
2019-03-20T12:50:43.612Z,1760
2019-03-20T12:51:53.752Z,1785
2019-03-20T12:53:06.295Z,1815
2019-03-20T12:54:16.478Z,1825
2019-03-20T12:55:26.384Z,1865
2019-03-20T12:56:36.342Z,1845
2019-03-20T12:57:46.491Z,1900
2019-03-20T12:58:56.636Z,1675
2019-03-20T13:00:06.999Z,1635
2019-03-20T13:01:17.160Z,925
2019-03-20T13:02:27.378Z,1255
2019-03-20T13:03:38.118Z,855
2019-03-20T13:04:48.290Z,735
2019-03-20T13:05:58.448Z,705
2019-03-20T13:07:08.638Z,790
2019-03-20T13:08:18.796Z,1060
2019-03-20T13:09:28.990Z,1525
2019-03-20T13:10:39.170Z,1215
2019-03-20T13:11:49.330Z,1140
2019-03-20T13:12:59.753Z,1190
2019-03-20T13:14:09.958Z,1100
2019-03-20T13:15:20.115Z,760
2019-03-20T13:16:30.266Z,785
2019-03-20T13:17:40.443Z,900
2019-03-20T13:18:50.582Z,985
2019-03-20T13:20:00.731Z,975
2019-03-20T13:21:10.881Z,1310
2019-03-20T13:22:21.093Z,1315
2019-03-20T13:23:31.232Z,1185
2019-03-20T13:24:41.383Z,995
2019-03-20T13:25:51.534Z,1120
2019-03-20T13:27:01.701Z,1165
2019-03-20T13:28:11.849Z,1285
2019-03-20T13:29:22.010Z,1255
2019-03-20T13:30:32.171Z,1475
2019-03-20T13:31:42.318Z,1480
2019-03-20T13:32:52.460Z,1345
2019-03-20T13:34:02.603Z,1300
2019-03-20T13:35:12.720Z,1335
2019-03-20T13:36:22.879Z,1400
2019-03-20T13:37:33.015Z,1130
2019-03-20T13:38:43.184Z,1350
2019-03-20T13:39:53.367Z,1420
2019-03-20T13:41:03.501Z,1505
2019-03-20T13:42:13.673Z,1425
2019-03-20T13:43:23.834Z,1440
2019-03-20T13:44:33.978Z,1290
2019-03-20T13:45:44.116Z,1130
2019-03-20T13:46:54.260Z,835
2019-03-20T13:48:04.402Z,750
2019-03-20T13:49:14.758Z,930
2019-03-20T13:50:24.908Z,1320
2019-03-20T13:51:35.071Z,1420
2019-03-20T13:52:45.219Z,1425
2019-03-20T13:53:55.395Z,1340
2019-03-20T13:55:05.278Z,1620
2019-03-20T13:56:15.429Z,1165
2019-03-20T13:57:25.567Z,810
2019-03-20T13:58:35.718Z,1015
2019-03-20T13:59:45.864Z,1635
2019-03-20T14:00:56.031Z,1580
2019-03-20T14:02:06.168Z,1475
2019-03-20T14:03:16.309Z,1350
2019-03-20T14:04:26.449Z,1475
2019-03-20T14:05:36.624Z,1455
2019-03-20T14:06:46.762Z,1420
2019-03-20T14:07:56.921Z,1280
2019-03-20T14:09:07.072Z,1360
2019-03-20T14:10:27.434Z,1345
2019-03-20T14:11:37.610Z,1370
2019-03-20T14:12:47.763Z,1365
2019-03-20T14:13:57.923Z,1355
2019-03-20T14:15:08.092Z,1335
2019-03-20T14:16:18.239Z,1275
2019-03-20T14:17:28.407Z,1295
2019-03-20T14:18:38.321Z,1255
2019-03-20T14:19:48.160Z,1310
2019-03-20T14:20:58.348Z,1345
2019-03-20T14:22:08.506Z,1340
2019-03-20T14:23:18.638Z,1090
2019-03-20T14:24:28.837Z,1260
2019-03-20T14:25:38.982Z,1295
2019-03-20T14:26:49.115Z,1310
2019-03-20T14:27:59.271Z,1350
2019-03-20T14:29:09.524Z,1275
2019-03-20T14:30:19.673Z,1150
2019-03-20T14:31:29.563Z,1215
2019-03-20T14:32:39.738Z,1325
2019-03-20T14:33:49.530Z,970
2019-03-20T14:34:59.672Z,980
2019-03-20T14:36:09.887Z,1045
2019-03-20T14:37:20.039Z,985
2019-03-20T14:38:30.169Z,1140
2019-03-20T14:39:40.312Z,1275
2019-03-20T14:40:50.469Z,1235
2019-03-20T14:42:00.607Z,770
2019-03-20T14:43:11.512Z,960
2019-03-20T14:44:21.727Z,1090
2019-03-20T14:45:31.886Z,895
2019-03-20T14:46:41.775Z,645
2019-03-20T14:47:52.209Z,740
2019-03-20T14:49:02.399Z,925
2019-03-20T14:50:12.558Z,670
2019-03-20T14:51:22.701Z,445
2019-03-20T14:52:32.870Z,450
2019-03-20T14:53:42.985Z,375
2019-03-20T14:54:53.133Z,355
2019-03-20T14:56:03.300Z,340
2019-03-20T14:57:13.439Z,350
2019-03-20T14:58:23.656Z,320
2019-03-20T14:59:33.817Z,295
2019-03-20T15:00:43.631Z,290
2019-03-20T15:01:53.785Z,280
2019-03-20T15:03:03.942Z,265
2019-03-20T15:04:14.098Z,245
2019-03-20T15:05:24.254Z,220
2019-03-20T15:06:34.375Z,200
2019-03-20T15:07:44.536Z,180
2019-03-20T15:08:54.718Z,170
2019-03-20T15:10:04.883Z,165
2019-03-20T15:11:15.018Z,165
2019-03-20T15:12:25.171Z,160
2019-03-20T15:13:35.326Z,160
2019-03-20T15:14:45.487Z,165
2019-03-20T15:15:55.638Z,160
2019-03-20T15:17:05.807Z,145
2019-03-20T15:18:15.970Z,140
2019-03-20T15:19:26.142Z,135
2019-03-20T15:20:36.314Z,130
2019-03-20T15:21:46.470Z,130
2019-03-20T15:22:56.630Z,130
2019-03-20T15:24:06.812Z,135
2019-03-20T15:25:17.007Z,135
2019-03-20T15:26:27.168Z,145
2019-03-20T15:27:37.313Z,150
2019-03-20T15:28:47.448Z,145
2019-03-20T15:29:57.613Z,145
2019-03-20T15:31:07.760Z,140
2019-03-20T15:32:17.934Z,140
2019-03-20T15:33:28.171Z,135
2019-03-20T15:34:38.303Z,130
2019-03-20T15:35:48.505Z,130
2019-03-20T15:36:58.675Z,125
2019-03-20T15:38:08.808Z,120
2019-03-20T15:39:19.018Z,120
2019-03-20T15:40:29.223Z,130
2019-03-20T15:41:39.377Z,130
2019-03-20T15:42:49.522Z,130
2019-03-20T15:44:09.351Z,130
2019-03-20T15:45:19.543Z,135
2019-03-20T15:46:29.682Z,135
2019-03-20T15:47:39.893Z,130
2019-03-20T15:48:50.094Z,125
2019-03-20T15:50:00.316Z,125
2019-03-20T15:51:10.453Z,120
2019-03-20T15:52:20.620Z,115
2019-03-20T15:53:30.782Z,105
2019-03-20T15:54:40.692Z,105
2019-03-20T15:55:50.833Z,100
2019-03-20T15:57:03.308Z,100
2019-03-20T15:58:13.458Z,95
2019-03-20T15:59:23.647Z,95
2019-03-20T16:00:33.839Z,90
2019-03-20T16:01:44.021Z,90
2019-03-20T16:02:54.475Z,85
2019-03-20T16:04:05.006Z,85
2019-03-20T16:05:15.218Z,85
2019-03-20T16:06:25.908Z,85
2019-03-20T16:07:36.257Z,85
2019-03-20T16:08:46.710Z,85
2019-03-20T16:09:57.116Z,80
2019-03-20T16:11:16.165Z,75
2019-03-20T16:12:26.732Z,70
2019-03-20T16:13:37.164Z,65
2019-03-20T16:14:47.173Z,65
2019-03-20T16:15:57.368Z,70
2019-03-20T16:17:07.513Z,65
2019-03-20T16:18:17.704Z,60
2019-03-20T16:19:27.865Z,55
2019-03-20T16:20:38.028Z,60
2019-03-20T16:21:48.179Z,65
2019-03-20T16:22:58.767Z,75
2019-03-20T16:24:09.112Z,75
2019-03-20T16:25:19.572Z,75
2019-03-20T16:26:29.941Z,70
2019-03-20T16:27:40.432Z,70
2019-03-20T16:28:50.893Z,65